createdAt,value
2023-02-07T00:00:13.518Z,1017.88
2023-02-07T00:01:13.508Z,1017.85
2023-02-07T00:02:13.525Z,1017.87
2023-02-07T00:03:13.614Z,1017.80
2023-02-07T00:04:13.480Z,1017.84
2023-02-07T00:05:13.470Z,1017.74
2023-02-07T00:06:13.554Z,1017.77
2023-02-07T00:07:13.447Z,1017.73
2023-02-07T00:08:19.440Z,1017.73
2023-02-07T00:09:13.435Z,1017.71
2023-02-07T00:10:13.442Z,1017.68
2023-02-07T00:11:13.407Z,1017.75
2023-02-07T00:12:19.399Z,1017.71
2023-02-07T00:13:13.388Z,1017.73
2023-02-07T00:14:13.377Z,1017.67
2023-02-07T00:15:13.368Z,1017.66
2023-02-07T00:16:13.428Z,1017.67
2023-02-07T00:17:13.351Z,1017.68
2023-02-07T00:18:13.334Z,1017.68
2023-02-07T00:19:13.323Z,1017.67
2023-02-07T00:20:13.318Z,1017.66
2023-02-07T00:21:13.306Z,1017.65
2023-02-07T00:22:13.294Z,1017.65
2023-02-07T00:23:13.286Z,1017.66
2023-02-07T00:24:13.292Z,1017.62
2023-02-07T00:25:13.275Z,1017.59
2023-02-07T00:26:13.287Z,1017.61
2023-02-07T00:27:13.247Z,1017.64
2023-02-07T00:28:13.340Z,1017.70
2023-02-07T00:29:13.232Z,1017.67
2023-02-07T00:30:13.220Z,1017.63
2023-02-07T00:31:13.400Z,1017.59
2023-02-07T00:32:13.198Z,1017.65
2023-02-07T00:33:13.186Z,1017.63
2023-02-07T00:34:13.178Z,1017.67
2023-02-07T00:35:13.170Z,1017.63
2023-02-07T00:36:13.157Z,1017.61
2023-02-07T00:37:13.164Z,1017.63
2023-02-07T00:38:13.140Z,1017.64
2023-02-07T00:39:13.157Z,1017.64
2023-02-07T00:40:13.127Z,1017.59
2023-02-07T00:41:13.110Z,1017.63
2023-02-07T00:42:13.122Z,1017.67
2023-02-07T00:43:21.519Z,1017.65
2023-02-07T00:44:14.136Z,1017.64
2023-02-07T00:45:13.070Z,1017.69
2023-02-07T00:46:13.125Z,1017.68
2023-02-07T00:47:13.049Z,1017.65
2023-02-07T00:48:13.048Z,1017.64
2023-02-07T00:49:13.031Z,1017.66
2023-02-07T00:50:13.019Z,1017.61
2023-02-07T00:51:13.010Z,1017.59
2023-02-07T00:52:12.999Z,1017.55
2023-02-07T00:53:12.987Z,1017.57
2023-02-07T00:54:12.981Z,1017.51
2023-02-07T00:55:12.972Z,1017.52
2023-02-07T00:56:12.964Z,1017.56
2023-02-07T00:57:12.951Z,1017.53
2023-02-07T00:58:12.967Z,1017.48
2023-02-07T00:59:12.929Z,1017.49
2023-02-07T01:00:12.933Z,1017.46
2023-02-07T01:01:12.935Z,1017.49
2023-02-07T01:02:12.898Z,1017.45
2023-02-07T01:03:12.898Z,1017.40
2023-02-07T01:04:12.884Z,1017.42
2023-02-07T01:05:12.874Z,1017.40
2023-02-07T01:06:12.864Z,1017.47
2023-02-07T01:07:12.851Z,1017.42
2023-02-07T01:08:12.861Z,1017.37
2023-02-07T01:09:12.834Z,1017.40
2023-02-07T01:10:12.827Z,1017.39
2023-02-07T01:11:12.815Z,1017.40
2023-02-07T01:12:12.812Z,1017.47
2023-02-07T01:13:12.793Z,1017.45
2023-02-07T01:14:12.808Z,1017.45
2023-02-07T01:15:12.780Z,1017.48
2023-02-07T01:16:12.841Z,1017.49
2023-02-07T01:17:12.781Z,1017.48
2023-02-07T01:18:12.764Z,1017.53
2023-02-07T01:19:14.796Z,1017.57
2023-02-07T01:20:12.732Z,1017.58
2023-02-07T01:21:12.714Z,1017.59
2023-02-07T01:22:12.708Z,1017.59
2023-02-07T01:23:12.701Z,1017.63
2023-02-07T01:24:12.688Z,1017.66
2023-02-07T01:25:12.692Z,1017.71
2023-02-07T01:26:12.673Z,1017.67
2023-02-07T01:27:12.661Z,1017.68
2023-02-07T01:28:12.668Z,1017.69
2023-02-07T01:29:12.639Z,1017.73
2023-02-07T01:30:12.650Z,1017.75
2023-02-07T01:31:12.851Z,1017.77
2023-02-07T01:32:12.614Z,1017.76
2023-02-07T01:33:12.606Z,1017.78
2023-02-07T01:34:12.593Z,1017.74
2023-02-07T01:35:12.582Z,1017.75
2023-02-07T01:36:12.577Z,1017.72
2023-02-07T01:37:12.569Z,1017.75
2023-02-07T01:38:12.548Z,1017.67
2023-02-07T01:39:12.536Z,1017.62
2023-02-07T01:40:12.574Z,1017.63
2023-02-07T01:41:12.518Z,1017.78
2023-02-07T01:42:12.511Z,1017.77
2023-02-07T01:43:12.497Z,1017.75
2023-02-07T01:44:18.499Z,1017.79
2023-02-07T01:45:12.601Z,1017.80
2023-02-07T01:46:12.514Z,1017.83
2023-02-07T01:47:12.458Z,1017.85
2023-02-07T01:48:12.452Z,1017.92
2023-02-07T01:49:12.434Z,1017.86
2023-02-07T01:50:12.426Z,1017.87
2023-02-07T01:51:12.413Z,1017.85
2023-02-07T01:52:12.412Z,1017.83
2023-02-07T01:53:12.400Z,1017.81
2023-02-07T01:54:12.586Z,1017.84
2023-02-07T01:55:12.378Z,1017.84
2023-02-07T01:56:22.749Z,1017.85
2023-02-07T01:57:13.401Z,1017.87
2023-02-07T01:58:12.344Z,1017.84
2023-02-07T01:59:12.338Z,1017.88
2023-02-07T02:00:12.325Z,1017.87
2023-02-07T02:01:12.344Z,1017.81
2023-02-07T02:02:18.422Z,1017.80
2023-02-07T02:03:12.293Z,1017.82
2023-02-07T02:04:12.288Z,1017.74
2023-02-07T02:05:12.274Z,1017.74
2023-02-07T02:06:12.267Z,1017.72
2023-02-07T02:07:12.254Z,1017.70
2023-02-07T02:08:12.251Z,1017.73
2023-02-07T02:09:12.231Z,1017.74
2023-02-07T02:10:18.245Z,1017.66
2023-02-07T02:11:12.214Z,1017.62
2023-02-07T02:12:12.210Z,1017.52
2023-02-07T02:13:12.197Z,1017.51
2023-02-07T02:14:12.192Z,1017.57
2023-02-07T02:15:12.171Z,1017.53
2023-02-07T02:16:12.222Z,1017.53
2023-02-07T02:17:12.161Z,1017.55
2023-02-07T02:18:12.173Z,1017.52
2023-02-07T02:19:12.137Z,1017.50
2023-02-07T02:20:12.131Z,1017.57
2023-02-07T02:21:12.117Z,1017.52
2023-02-07T02:22:12.116Z,1017.52
2023-02-07T02:23:12.093Z,1017.53
2023-02-07T02:24:12.092Z,1017.56
2023-02-07T02:25:12.079Z,1017.58
2023-02-07T02:26:12.168Z,1017.59
2023-02-07T02:27:12.056Z,1017.57
2023-02-07T02:28:12.107Z,1017.60
2023-02-07T02:29:12.045Z,1017.55
2023-02-07T02:30:12.025Z,1017.53
2023-02-07T02:31:12.024Z,1017.53
2023-02-07T02:32:18.016Z,1017.56
2023-02-07T02:33:11.994Z,1017.55
2023-02-07T02:34:12.018Z,1017.54
2023-02-07T02:35:11.978Z,1017.60
2023-02-07T02:36:11.970Z,1017.58
2023-02-07T02:37:11.969Z,1017.55
2023-02-07T02:38:11.948Z,1017.50
2023-02-07T02:39:11.937Z,1017.54
2023-02-07T02:40:11.939Z,1017.50
2023-02-07T02:41:11.914Z,1017.47
2023-02-07T02:42:12.109Z,1017.40
2023-02-07T02:43:12.108Z,1017.42
2023-02-07T02:44:11.888Z,1017.41
2023-02-07T02:45:11.878Z,1017.45
2023-02-07T02:46:11.904Z,1017.40
2023-02-07T02:47:11.858Z,1017.42
2023-02-07T02:48:11.856Z,1017.36
2023-02-07T02:49:11.841Z,1017.35
2023-02-07T02:50:11.854Z,1017.35
2023-02-07T02:51:11.832Z,1017.43
2023-02-07T02:52:11.810Z,1017.40
2023-02-07T02:53:11.807Z,1017.36
2023-02-07T02:54:11.794Z,1017.38
2023-02-07T02:55:11.789Z,1017.39
2023-02-07T02:56:11.772Z,1017.30
2023-02-07T02:57:11.769Z,1017.27
2023-02-07T02:58:11.756Z,1017.24
2023-02-07T02:59:11.743Z,1017.24
2023-02-07T03:00:11.771Z,1017.21
2023-02-07T03:01:11.728Z,1017.22
2023-02-07T03:02:11.720Z,1017.18
2023-02-07T03:03:11.713Z,1017.19
2023-02-07T03:04:11.694Z,1017.18
2023-02-07T03:05:11.773Z,1017.22
2023-02-07T03:06:11.703Z,1017.17
2023-02-07T03:07:11.664Z,1017.21
2023-02-07T03:08:11.665Z,1017.27
2023-02-07T03:09:11.646Z,1017.24
2023-02-07T03:10:17.641Z,1017.26
2023-02-07T03:11:11.655Z,1017.27
2023-02-07T03:12:11.629Z,1017.32
2023-02-07T03:13:11.608Z,1017.25
2023-02-07T03:14:11.596Z,1017.24
2023-02-07T03:15:11.586Z,1017.19
2023-02-07T03:16:11.604Z,1017.21
2023-02-07T03:17:11.566Z,1017.19
2023-02-07T03:18:17.569Z,1017.16
2023-02-07T03:19:11.549Z,1017.11
2023-02-07T03:20:11.547Z,1017.09
2023-02-07T03:21:11.528Z,1017.06
2023-02-07T03:22:11.539Z,1017.06
2023-02-07T03:23:11.512Z,1017.00
2023-02-07T03:24:11.495Z,1017.03
2023-02-07T03:25:11.480Z,1017.01
2023-02-07T03:26:17.476Z,1017.02
2023-02-07T03:27:11.473Z,1017.04
2023-02-07T03:28:17.705Z,1017.01
2023-02-07T03:29:11.444Z,1017.01
2023-02-07T03:30:11.434Z,1017.03
2023-02-07T03:31:11.442Z,1017.03
2023-02-07T03:32:11.416Z,1017.06
2023-02-07T03:33:11.410Z,1017.10
2023-02-07T03:34:11.395Z,1017.00
2023-02-07T03:35:11.394Z,1017.04
2023-02-07T03:36:11.366Z,1016.99
2023-02-07T03:37:11.361Z,1017.02
2023-02-07T03:38:11.377Z,1017.05
2023-02-07T03:39:11.339Z,1017.08
2023-02-07T03:40:11.350Z,1017.06
2023-02-07T03:41:11.321Z,1017.19
2023-02-07T03:42:11.312Z,1017.15
2023-02-07T03:43:11.306Z,1017.21
2023-02-07T03:44:11.290Z,1017.24
2023-02-07T03:45:11.291Z,1017.21
2023-02-07T03:46:17.293Z,1017.25
2023-02-07T03:47:17.271Z,1017.28
2023-02-07T03:53:11.200Z,1017.27
2023-02-07T03:54:11.214Z,1017.31
2023-02-07T03:55:11.185Z,1017.25
2023-02-07T03:56:11.174Z,1017.33
2023-02-07T03:57:11.164Z,1017.30
2023-02-07T04:02:11.191Z,1017.26
2023-02-07T04:03:11.110Z,1017.25
2023-02-07T04:04:11.097Z,1017.27
2023-02-07T04:05:11.091Z,1017.21
2023-02-07T04:06:11.091Z,1017.20
2023-02-07T04:07:11.071Z,1017.18
2023-02-07T04:08:11.054Z,1017.18
2023-02-07T04:09:11.944Z,1017.13
2023-02-07T04:10:11.057Z,1017.18
2023-02-07T04:11:11.039Z,1017.16
2023-02-07T04:12:11.016Z,1017.15
2023-02-07T04:13:11.007Z,1017.18
2023-02-07T04:14:11.002Z,1017.14
2023-02-07T04:15:10.999Z,1017.14
2023-02-07T04:16:10.995Z,1017.20
2023-02-07T04:26:10.902Z,1017.17
2023-02-07T07:48:08.885Z,1018.17
2023-02-07T07:49:08.854Z,1018.20
2023-02-07T07:50:08.829Z,1018.21
2023-02-07T07:51:08.825Z,1018.21
2023-02-07T07:52:08.816Z,1018.23
2023-02-07T07:53:08.806Z,1018.23
2023-02-07T07:54:08.820Z,1018.21
2023-02-07T07:55:08.781Z,1018.26
2023-02-07T07:56:08.773Z,1018.26
2023-02-07T07:57:08.764Z,1018.26
2023-02-07T07:58:08.757Z,1018.27
2023-02-07T07:59:15.926Z,1018.29
2023-02-07T08:00:09.781Z,1018.28
2023-02-07T08:01:08.823Z,1018.31
2023-02-07T08:02:08.715Z,1018.37
2023-02-07T08:03:08.699Z,1018.36
2023-02-07T08:04:08.707Z,1018.38
2023-02-07T08:05:08.681Z,1018.38
2023-02-07T08:06:08.678Z,1018.35
2023-02-07T08:07:08.665Z,1018.28
2023-02-07T08:08:08.852Z,1018.26
2023-02-07T08:09:08.642Z,1018.31
2023-02-07T08:10:14.675Z,1018.28
2023-02-07T08:11:08.624Z,1018.30
2023-02-07T08:12:08.612Z,1018.30
2023-02-07T08:13:08.612Z,1018.30
2023-02-07T08:14:08.590Z,1018.34
2023-02-07T08:15:08.582Z,1018.32
2023-02-07T08:16:08.658Z,1018.31
2023-02-07T08:17:08.572Z,1018.34
2023-02-07T08:18:08.558Z,1018.35
2023-02-07T08:19:08.543Z,1018.37
2023-02-07T08:20:08.532Z,1018.39
2023-02-07T08:21:08.521Z,1018.42
2023-02-07T08:22:08.512Z,1018.45
2023-02-07T08:23:08.503Z,1018.44
2023-02-07T08:24:08.498Z,1018.52
2023-02-07T08:25:08.491Z,1018.50
2023-02-07T08:26:08.494Z,1018.46
2023-02-07T08:27:08.462Z,1018.48
2023-02-07T08:28:08.475Z,1018.42
2023-02-07T08:29:08.440Z,1018.43
2023-02-07T08:30:08.437Z,1018.40
2023-02-07T08:31:08.446Z,1018.42
2023-02-07T08:32:08.452Z,1018.42
2023-02-07T08:33:08.403Z,1018.40
2023-02-07T08:34:08.392Z,1018.38
2023-02-07T08:35:08.378Z,1018.36
2023-02-07T08:36:08.416Z,1018.47
2023-02-07T08:37:08.365Z,1018.48
2023-02-07T08:38:08.355Z,1018.40
2023-02-07T08:39:08.346Z,1018.49
2023-02-07T08:40:14.337Z,1018.43
2023-02-07T08:41:08.319Z,1018.46
2023-02-07T08:42:08.346Z,1018.47
2023-02-07T08:43:08.299Z,1018.51
2023-02-07T08:44:08.290Z,1018.52
2023-02-07T08:45:08.329Z,1018.52
2023-02-07T08:46:08.420Z,1018.49
2023-02-07T08:47:08.257Z,1018.54
2023-02-07T08:48:08.246Z,1018.50
2023-02-07T08:49:08.233Z,1018.56
2023-02-07T08:50:08.233Z,1018.55
2023-02-07T08:51:08.216Z,1018.56
2023-02-07T08:52:08.202Z,1018.52
2023-02-07T08:53:08.195Z,1018.53
2023-02-07T08:54:08.185Z,1018.53
2023-02-07T08:55:08.376Z,1018.55
2023-02-07T08:56:08.369Z,1018.54
2023-02-07T08:57:08.157Z,1018.59
2023-02-07T08:58:08.169Z,1018.58
2023-02-07T08:59:08.131Z,1018.57
2023-02-07T09:00:08.130Z,1018.61
2023-02-07T09:01:08.393Z,1018.57
2023-02-07T09:02:08.142Z,1018.61
2023-02-07T09:03:08.124Z,1018.61
2023-02-07T09:04:08.085Z,1018.60
2023-02-07T09:05:08.089Z,1018.59
2023-02-07T09:06:08.057Z,1018.58
2023-02-07T09:07:08.055Z,1018.58
2023-02-07T09:08:08.037Z,1018.59
2023-02-07T09:09:08.031Z,1018.47
2023-02-07T09:10:08.024Z,1018.53
2023-02-07T09:11:09.439Z,1018.45
2023-02-07T09:12:08.002Z,1018.48
2023-02-07T09:13:07.988Z,1018.49
2023-02-07T09:14:07.996Z,1018.53
2023-02-07T09:15:07.965Z,1018.53
2023-02-07T09:16:07.953Z,1018.56
2023-02-07T09:17:07.938Z,1018.51
2023-02-07T09:18:07.938Z,1018.56
2023-02-07T09:19:07.917Z,1018.54
2023-02-07T09:20:07.919Z,1018.52
2023-02-07T09:21:07.915Z,1018.48
2023-02-07T09:22:07.888Z,1018.48
2023-02-07T09:23:07.897Z,1018.51
2023-02-07T09:24:07.871Z,1018.48
2023-02-07T09:25:07.881Z,1018.44
2023-02-07T09:26:07.866Z,1018.45
2023-02-07T09:27:07.837Z,1018.47
2023-02-07T09:28:07.869Z,1018.48
2023-02-07T09:29:13.846Z,1018.44
2023-02-07T09:30:07.809Z,1018.45
2023-02-07T09:31:07.952Z,1018.46
2023-02-07T09:32:07.790Z,1018.50
2023-02-07T09:33:07.781Z,1018.50
2023-02-07T09:34:07.767Z,1018.49
2023-02-07T09:35:07.759Z,1018.49
2023-02-07T09:36:07.765Z,1018.48
2023-02-07T09:37:07.744Z,1018.47
2023-02-07T09:38:07.833Z,1018.46
2023-02-07T09:39:07.721Z,1018.50
2023-02-07T09:40:07.702Z,1018.47
2023-02-07T09:41:07.692Z,1018.48
2023-02-07T09:42:07.687Z,1018.48
2023-02-07T09:43:07.924Z,1018.43
2023-02-07T09:44:07.855Z,1018.45
2023-02-07T09:45:07.951Z,1018.40
2023-02-07T09:46:07.709Z,1018.44
2023-02-07T09:47:07.631Z,1018.41
2023-02-07T09:48:09.477Z,1018.37
2023-02-07T09:49:07.619Z,1018.39
2023-02-07T09:50:07.601Z,1018.39
2023-02-07T09:51:07.585Z,1018.41
2023-02-07T09:52:07.795Z,1018.45
2023-02-07T09:53:07.575Z,1018.44
2023-02-07T09:54:07.566Z,1018.42
2023-02-07T09:55:13.553Z,1018.37
2023-02-07T09:56:07.539Z,1018.41
2023-02-07T09:57:13.537Z,1018.42
2023-02-07T09:58:07.514Z,1018.48
2023-02-07T09:59:07.511Z,1018.42
2023-02-07T10:00:07.506Z,1018.42
2023-02-07T10:01:07.546Z,1018.44
2023-02-07T10:02:07.514Z,1018.41
2023-02-07T10:03:07.457Z,1018.42
2023-02-07T10:04:07.456Z,1018.47
2023-02-07T10:05:07.444Z,1018.50
2023-02-07T10:06:17.974Z,1018.50
2023-02-07T10:07:07.426Z,1018.57
2023-02-07T10:08:07.412Z,1018.52
2023-02-07T10:09:07.397Z,1018.50
2023-02-07T10:10:07.390Z,1018.49
2023-02-07T10:11:07.634Z,1018.52
2023-02-07T10:12:07.384Z,1018.54
2023-02-07T10:13:08.593Z,1018.61
2023-02-07T10:14:07.554Z,1018.54
2023-02-07T10:15:07.333Z,1018.57
2023-02-07T10:16:07.373Z,1018.49
2023-02-07T10:17:07.706Z,1018.46
2023-02-07T10:18:07.307Z,1018.53
2023-02-07T10:19:07.296Z,1018.52
2023-02-07T10:20:07.288Z,1018.54
2023-02-07T10:21:07.281Z,1018.57
2023-02-07T10:22:07.365Z,1018.55
2023-02-07T10:23:07.250Z,1018.51
2023-02-07T10:24:07.247Z,1018.48
2023-02-07T10:25:07.227Z,1018.46
2023-02-07T10:26:07.254Z,1018.47
2023-02-07T10:27:07.210Z,1018.47
2023-02-07T10:28:07.267Z,1018.50
2023-02-07T10:29:07.198Z,1018.45
2023-02-07T10:30:07.394Z,1018.47
2023-02-07T10:31:07.271Z,1018.45
2023-02-07T10:32:07.165Z,1018.43
2023-02-07T10:33:07.391Z,1018.43
2023-02-07T10:34:07.143Z,1018.39
2023-02-07T10:35:07.158Z,1018.38
2023-02-07T10:36:07.131Z,1018.37
2023-02-07T10:37:07.260Z,1018.36
2023-02-07T10:38:07.106Z,1018.36
2023-02-07T10:39:09.834Z,1018.26
2023-02-07T10:40:07.290Z,1018.27
2023-02-07T10:41:13.121Z,1018.28
2023-02-07T10:42:07.061Z,1018.28
2023-02-07T10:43:07.137Z,1018.27
2023-02-07T10:44:09.101Z,1018.27
2023-02-07T10:45:07.034Z,1018.18
2023-02-07T10:46:07.074Z,1018.20
2023-02-07T10:47:07.024Z,1018.22
2023-02-07T10:48:07.200Z,1018.22
2023-02-07T10:49:13.222Z,1018.18
2023-02-07T10:50:07.187Z,1018.11
2023-02-07T10:51:06.979Z,1018.08
2023-02-07T10:52:06.966Z,1018.07
2023-02-07T10:53:07.051Z,1017.98
2023-02-07T10:54:06.949Z,1018.02
2023-02-07T10:55:12.943Z,1018.07
2023-02-07T10:56:12.930Z,1018.09
2023-02-07T10:57:06.917Z,1018.10
2023-02-07T10:58:21.117Z,1018.09
2023-02-07T10:59:08.146Z,1018.07
2023-02-07T11:00:06.885Z,1018.08
2023-02-07T11:01:07.078Z,1017.98
2023-02-07T11:02:08.648Z,1017.93
2023-02-07T11:03:06.945Z,1018.01
2023-02-07T11:04:12.847Z,1017.97
2023-02-07T11:05:06.853Z,1017.98
2023-02-07T11:06:06.864Z,1017.95
2023-02-07T11:07:06.818Z,1017.99
2023-02-07T11:08:12.811Z,1017.91
2023-02-07T11:09:06.803Z,1017.93
2023-02-07T11:10:06.795Z,1017.91
2023-02-07T11:11:06.779Z,1017.89
2023-02-07T11:12:06.969Z,1017.88
2023-02-07T11:13:06.753Z,1017.85
2023-02-07T11:14:06.742Z,1017.90
2023-02-07T11:15:06.736Z,1017.92
2023-02-07T11:16:06.797Z,1017.87
2023-02-07T11:17:06.715Z,1017.87
2023-02-07T11:18:06.703Z,1017.90
2023-02-07T11:19:06.704Z,1017.83
2023-02-07T11:20:06.686Z,1017.82
2023-02-07T11:21:06.696Z,1017.77
2023-02-07T11:22:06.664Z,1017.79
2023-02-07T11:23:06.663Z,1017.75
2023-02-07T11:24:06.683Z,1017.77
2023-02-07T11:25:06.644Z,1017.74
2023-02-07T11:26:12.638Z,1017.72
2023-02-07T11:27:06.819Z,1017.71
2023-02-07T11:28:06.613Z,1017.74
2023-02-07T11:29:07.756Z,1017.75
2023-02-07T11:30:06.597Z,1017.67
2023-02-07T11:31:06.746Z,1017.75
2023-02-07T11:32:06.576Z,1017.74
2023-02-07T11:33:06.561Z,1017.72
2023-02-07T11:34:06.573Z,1017.65
2023-02-07T11:35:06.539Z,1017.66
2023-02-07T11:36:06.528Z,1017.72
2023-02-07T11:37:06.540Z,1017.66
2023-02-07T11:38:06.511Z,1017.58
2023-02-07T11:39:06.501Z,1017.70
2023-02-07T11:40:06.483Z,1017.60
2023-02-07T11:41:06.474Z,1017.57
2023-02-07T11:42:06.467Z,1017.56
2023-02-07T11:43:06.457Z,1017.56
2023-02-07T11:44:06.445Z,1017.48
2023-02-07T11:45:06.429Z,1017.52
2023-02-07T11:46:06.444Z,1017.55
2023-02-07T11:47:06.419Z,1017.51
2023-02-07T11:48:06.406Z,1017.41
2023-02-07T11:49:06.392Z,1017.42
2023-02-07T11:50:06.394Z,1017.53
2023-02-07T11:51:06.369Z,1017.52
2023-02-07T11:52:06.362Z,1017.54
2023-02-07T11:53:06.378Z,1017.54
2023-02-07T11:54:06.346Z,1017.51
2023-02-07T11:55:06.551Z,1017.48
2023-02-07T11:56:06.334Z,1017.55
2023-02-07T11:57:08.573Z,1017.55
2023-02-07T11:58:06.304Z,1017.50
2023-02-07T11:59:06.299Z,1017.40
2023-02-07T12:00:06.295Z,1017.44
2023-02-07T12:01:06.282Z,1017.47
2023-02-07T12:02:06.372Z,1017.40
2023-02-07T12:03:06.258Z,1017.37
2023-02-07T12:04:06.256Z,1017.36
2023-02-07T12:05:06.292Z,1017.33
2023-02-07T12:06:06.230Z,1017.18
2023-02-07T12:07:06.258Z,1017.10
2023-02-07T12:08:06.220Z,1017.20
2023-02-07T12:09:06.224Z,1017.22
2023-02-07T12:10:06.209Z,1017.12
2023-02-07T12:11:06.379Z,1017.17
2023-02-07T12:12:06.190Z,1017.18
2023-02-07T12:13:06.159Z,1017.19
2023-02-07T12:14:06.155Z,1017.23
2023-02-07T12:15:06.143Z,1017.30
2023-02-07T12:16:06.166Z,1017.27
2023-02-07T12:17:06.223Z,1017.35
2023-02-07T12:18:06.106Z,1017.33
2023-02-07T12:19:06.096Z,1017.33
2023-02-07T12:20:06.094Z,1017.22
2023-02-07T12:21:12.087Z,1017.14
2023-02-07T12:22:06.073Z,1017.11
2023-02-07T12:23:34.518Z,1017.15
2023-02-07T12:24:07.098Z,1017.20
2023-02-07T12:25:06.092Z,1017.21
2023-02-07T12:26:06.025Z,1017.28
2023-02-07T12:27:06.021Z,1017.27
2023-02-07T12:28:06.093Z,1017.24
2023-02-07T12:29:13.251Z,1017.23
2023-02-07T12:30:05.987Z,1017.25
2023-02-07T12:31:06.591Z,1017.24
2023-02-07T12:32:06.110Z,1017.25
2023-02-07T12:33:06.152Z,1017.25
2023-02-07T12:34:06.143Z,1017.25
2023-02-07T12:35:05.935Z,1017.24
2023-02-07T12:36:05.919Z,1017.22
2023-02-07T12:37:05.914Z,1017.23
2023-02-07T12:38:05.918Z,1017.26
2023-02-07T12:39:05.889Z,1017.24
2023-02-07T12:40:05.880Z,1017.32
2023-02-07T12:41:06.093Z,1017.31
2023-02-07T12:42:05.967Z,1017.35
2023-02-07T12:43:05.863Z,1017.36
2023-02-07T12:44:07.025Z,1017.31
2023-02-07T12:45:05.827Z,1017.36
2023-02-07T12:46:05.884Z,1017.37
2023-02-07T12:47:05.805Z,1017.43
2023-02-07T12:48:06.009Z,1017.45
2023-02-07T12:49:05.805Z,1017.41
2023-02-07T12:50:05.777Z,1017.42
2023-02-07T12:51:05.768Z,1017.41
2023-02-07T12:52:07.170Z,1017.43
2023-02-07T12:53:05.945Z,1017.40
2023-02-07T12:54:05.735Z,1017.44
2023-02-07T12:55:05.722Z,1017.43
2023-02-07T12:56:11.740Z,1017.41
2023-02-07T12:57:05.707Z,1017.39
2023-02-07T12:58:05.688Z,1017.37
2023-02-07T12:59:05.683Z,1017.38
2023-02-07T13:00:05.673Z,1017.37
2023-02-07T13:01:05.868Z,1017.37
2023-02-07T13:02:05.695Z,1017.40
2023-02-07T13:03:06.048Z,1017.37
2023-02-07T13:04:05.625Z,1017.36
2023-02-07T13:05:05.619Z,1017.34
2023-02-07T13:06:05.603Z,1017.35
2023-02-07T13:07:05.597Z,1017.31
2023-02-07T13:08:05.582Z,1017.34
2023-02-07T13:09:05.581Z,1017.39
2023-02-07T13:10:05.575Z,1017.38
2023-02-07T13:11:05.549Z,1017.36
2023-02-07T13:12:05.566Z,1017.35
2023-02-07T13:13:05.533Z,1017.34
2023-02-07T13:14:05.524Z,1017.42
2023-02-07T13:15:05.507Z,1017.36
2023-02-07T13:16:05.507Z,1017.32
2023-02-07T13:17:05.486Z,1017.36
2023-02-07T13:18:05.475Z,1017.34
2023-02-07T13:19:05.661Z,1017.37
2023-02-07T13:20:05.453Z,1017.34
2023-02-07T13:21:05.454Z,1017.35
2023-02-07T13:22:05.437Z,1017.35
2023-02-07T13:23:05.649Z,1017.28
2023-02-07T13:24:05.407Z,1017.37
2023-02-07T13:25:05.606Z,1017.40
2023-02-07T13:26:05.388Z,1017.35
2023-02-07T13:27:05.388Z,1017.31
2023-02-07T13:28:05.479Z,1017.34
2023-02-07T13:29:05.359Z,1017.27
2023-02-07T13:30:05.353Z,1017.24
2023-02-07T13:31:05.406Z,1017.26
2023-02-07T13:32:05.387Z,1017.26
2023-02-07T13:33:05.319Z,1017.32
2023-02-07T13:34:05.310Z,1017.32
2023-02-07T13:35:05.302Z,1017.26
2023-02-07T13:36:05.288Z,1017.24
2023-02-07T13:37:16.316Z,1017.26
2023-02-07T13:38:06.309Z,1017.30
2023-02-07T13:39:05.273Z,1017.26
2023-02-07T13:40:05.254Z,1017.26
2023-02-07T13:41:05.441Z,1017.21
2023-02-07T13:42:05.238Z,1017.25
2023-02-07T13:43:11.253Z,1017.24
2023-02-07T13:44:10.055Z,1017.15
2023-02-07T13:45:05.202Z,1017.10
2023-02-07T13:46:05.226Z,1017.17
2023-02-07T13:47:05.204Z,1017.16
2023-02-07T13:48:05.170Z,1017.06
2023-02-07T13:49:05.160Z,1017.11
2023-02-07T13:50:05.152Z,1017.17
2023-02-07T13:51:05.141Z,1017.14
2023-02-07T13:52:05.330Z,1017.10
2023-02-07T13:53:05.333Z,1017.15
2023-02-07T13:54:05.113Z,1017.18
2023-02-07T13:55:05.103Z,1017.17
2023-02-07T13:56:05.085Z,1017.19
2023-02-07T13:57:05.083Z,1017.15
2023-02-07T13:58:05.067Z,1017.21
2023-02-07T13:59:05.086Z,1017.18
2023-02-07T14:00:11.089Z,1017.20
2023-02-07T14:01:05.080Z,1017.23
2023-02-07T14:02:05.026Z,1017.16
2023-02-07T14:03:05.077Z,1017.16
2023-02-07T14:04:05.041Z,1017.19
2023-02-07T14:05:05.203Z,1017.16
2023-02-07T14:06:04.991Z,1017.16
2023-02-07T14:07:04.979Z,1017.15
2023-02-07T14:08:04.963Z,1017.11
2023-02-07T14:09:04.955Z,1017.17
2023-02-07T14:10:04.993Z,1017.17
2023-02-07T14:11:04.931Z,1017.12
2023-02-07T14:12:11.129Z,1017.11
2023-02-07T14:13:04.916Z,1017.14
2023-02-07T14:14:11.572Z,1017.16
2023-02-07T14:15:04.891Z,1017.16
2023-02-07T14:16:04.930Z,1017.14
2023-02-07T14:17:04.867Z,1017.20
2023-02-07T14:18:04.866Z,1017.16
2023-02-07T14:19:04.844Z,1017.20
2023-02-07T14:20:04.848Z,1017.20
2023-02-07T14:21:04.839Z,1017.17
2023-02-07T14:22:04.816Z,1017.20
2023-02-07T14:23:04.807Z,1017.19
2023-02-07T14:24:04.795Z,1017.26
2023-02-07T14:25:04.783Z,1017.23
2023-02-07T14:26:04.787Z,1017.27
2023-02-07T14:27:04.757Z,1017.29
2023-02-07T14:28:04.816Z,1017.29
2023-02-07T14:29:04.745Z,1017.29
2023-02-07T14:30:04.762Z,1017.30
2023-02-07T14:31:04.911Z,1017.29
2023-02-07T14:32:05.029Z,1017.31
2023-02-07T14:33:04.703Z,1017.31
2023-02-07T14:34:04.684Z,1017.37
2023-02-07T14:35:04.678Z,1017.34
2023-02-07T14:36:04.672Z,1017.36
2023-02-07T14:37:04.666Z,1017.35
2023-02-07T14:38:04.649Z,1017.29
2023-02-07T14:39:04.653Z,1017.31
2023-02-07T14:40:04.638Z,1017.32
2023-02-07T14:41:10.704Z,1017.28
2023-02-07T14:42:05.657Z,1017.30
2023-02-07T14:43:04.597Z,1017.30
2023-02-07T14:44:09.654Z,1017.30
2023-02-07T14:45:04.597Z,1017.27
2023-02-07T14:46:04.690Z,1017.25
2023-02-07T14:47:04.588Z,1017.25
2023-02-07T14:48:04.546Z,1017.27
2023-02-07T14:49:10.545Z,1017.31
2023-02-07T14:50:04.534Z,1017.25
2023-02-07T14:51:04.518Z,1017.30
2023-02-07T14:52:06.939Z,1017.29
2023-02-07T14:53:04.534Z,1017.24
2023-02-07T14:54:04.490Z,1017.23
2023-02-07T14:55:39.200Z,1017.25
2023-02-07T14:56:39.170Z,1017.27
2023-02-07T14:57:39.179Z,1017.25
2023-02-07T14:58:39.137Z,1017.23
2023-02-07T14:59:39.127Z,1017.18
2023-02-07T15:00:45.131Z,1017.20
2023-02-07T15:01:39.161Z,1017.21
2023-02-07T15:02:39.136Z,1017.25
2023-02-07T15:03:39.091Z,1017.26
2023-02-07T15:04:39.080Z,1017.27
2023-02-07T15:05:39.066Z,1017.25
2023-02-07T15:06:39.065Z,1017.24
2023-02-07T15:07:39.047Z,1017.26
2023-02-07T15:08:39.040Z,1017.25
2023-02-07T15:09:39.026Z,1017.22
2023-02-07T15:10:39.553Z,1017.23
2023-02-07T15:11:47.734Z,1017.27
2023-02-07T15:12:38.992Z,1017.24
2023-02-07T15:13:38.984Z,1017.26
2023-02-07T15:14:38.968Z,1017.29
2023-02-07T15:15:39.049Z,1017.26
2023-02-07T15:16:38.952Z,1017.22
2023-02-07T15:17:44.276Z,1017.18
2023-02-07T15:18:38.930Z,1017.23
2023-02-07T15:19:38.924Z,1017.23
2023-02-07T15:20:39.168Z,1017.25
2023-02-07T15:21:38.901Z,1017.28
2023-02-07T15:22:38.883Z,1017.23
2023-02-07T15:23:38.881Z,1017.28
2023-02-07T15:24:50.710Z,1017.32
2023-02-07T15:25:39.898Z,1017.34
2023-02-07T15:26:38.848Z,1017.31
2023-02-07T15:27:38.835Z,1017.34
2023-02-07T15:28:38.981Z,1017.39
2023-02-07T15:29:38.805Z,1017.39
2023-02-07T15:30:44.816Z,1017.36
2023-02-07T15:31:39.023Z,1017.35
2023-02-07T15:32:38.829Z,1017.35
2023-02-07T15:33:38.791Z,1017.33
2023-02-07T15:34:38.751Z,1017.35
2023-02-07T15:35:38.744Z,1017.38
2023-02-07T15:36:38.736Z,1017.37
2023-02-07T15:37:38.720Z,1017.38
2023-02-07T15:38:38.710Z,1017.40
2023-02-07T15:39:38.706Z,1017.38
2023-02-07T15:40:39.023Z,1017.43
2023-02-07T15:41:38.676Z,1017.39
2023-02-07T15:42:38.669Z,1017.39
2023-02-07T15:43:38.659Z,1017.40
2023-02-07T15:44:38.649Z,1017.41